createdAt,value
2022-12-25T00:02:21.051Z,19.65
2022-12-25T00:04:48.993Z,20.00
2022-12-25T00:07:19.793Z,14.88
2022-12-25T00:09:47.672Z,18.17
2022-12-25T00:12:15.783Z,20.52
2022-12-25T00:14:43.715Z,18.55
2022-12-25T00:17:11.680Z,18.55
2022-12-25T00:19:40.977Z,23.40
2022-12-25T00:22:09.218Z,17.13
2022-12-25T00:24:37.460Z,28.95
2022-12-25T00:27:05.392Z,22.63
2022-12-25T00:29:35.707Z,17.17
2022-12-25T00:32:03.602Z,15.50
2022-12-25T00:34:31.520Z,25.83
2022-12-25T00:37:00.763Z,20.80
2022-12-25T00:39:28.699Z,23.55
2022-12-25T00:42:13.962Z,26.13
2022-12-25T00:44:41.808Z,25.55
2022-12-25T00:47:09.731Z,16.08
2022-12-25T00:49:37.634Z,25.15
2022-12-25T00:52:07.212Z,19.20
2022-12-25T00:54:35.230Z,31.30
2022-12-25T00:57:03.563Z,20.63
2022-12-25T00:59:33.284Z,34.55
2022-12-25T01:02:21.992Z,18.33
2022-12-25T01:04:50.542Z,23.85
2022-12-25T01:07:20.222Z,20.95
2022-12-25T01:10:06.470Z,22.00
2022-12-25T01:12:35.976Z,28.52
2022-12-25T01:15:04.576Z,23.23
2022-12-25T01:17:32.580Z,24.60
2022-12-25T01:20:00.449Z,31.88
2022-12-25T01:22:29.690Z,29.33
2022-12-25T01:24:57.556Z,21.55
2022-12-25T01:27:25.430Z,19.80
2022-12-25T01:29:53.325Z,23.02
2022-12-25T01:32:21.268Z,27.58
2022-12-25T01:34:53.845Z,18.20
2022-12-25T01:37:24.911Z,23.58
2022-12-25T01:39:54.138Z,19.30
2022-12-25T01:42:24.509Z,31.23
2022-12-25T01:45:33.774Z,23.42
2022-12-25T01:48:05.739Z,19.05
2022-12-25T01:50:34.564Z,19.15
2022-12-25T01:53:03.138Z,19.65
2022-12-25T01:55:34.217Z,19.77
2022-12-25T01:58:03.333Z,19.73
2022-12-25T02:00:31.280Z,17.95
2022-12-25T02:03:00.122Z,23.00
2022-12-25T02:05:29.904Z,26.05
2022-12-25T02:08:00.681Z,27.73
2022-12-25T02:10:28.843Z,22.70
2022-12-25T02:12:58.103Z,28.90
2022-12-25T02:15:36.236Z,25.45
2022-12-25T02:18:10.913Z,24.27
2022-12-25T02:20:51.939Z,24.48
2022-12-25T02:24:06.914Z,23.60
2022-12-25T02:27:01.550Z,21.73
2022-12-25T02:29:37.814Z,25.10
2022-12-25T02:32:11.288Z,21.42
2022-12-25T02:34:44.723Z,24.10
2022-12-25T02:37:16.072Z,18.58
2022-12-25T02:39:59.228Z,23.92
2022-12-25T02:43:01.266Z,18.83
2022-12-25T02:45:52.836Z,29.13
2022-12-25T02:48:41.313Z,24.42
2022-12-25T02:51:39.574Z,19.65
2022-12-25T02:54:29.208Z,21.00
2022-12-25T02:57:16.802Z,18.77
2022-12-25T03:00:05.835Z,27.77
2022-12-25T03:02:52.778Z,16.40
2022-12-25T03:05:53.185Z,23.35
2022-12-25T03:08:25.843Z,23.33
2022-12-25T03:11:18.225Z,24.45
2022-12-25T03:13:49.961Z,21.83
2022-12-25T03:16:35.825Z,22.50
2022-12-25T03:19:26.012Z,21.27
2022-12-25T03:22:13.444Z,23.25
2022-12-25T03:24:59.673Z,21.27
2022-12-25T03:27:30.923Z,25.40
2022-12-25T03:30:16.349Z,28.02
2022-12-25T03:32:58.613Z,16.13
2022-12-25T03:35:44.164Z,26.33
2022-12-25T03:38:52.158Z,26.52
2022-12-25T03:41:43.864Z,20.00
2022-12-25T03:44:36.737Z,22.65
2022-12-25T03:47:35.397Z,17.67
2022-12-25T03:50:25.723Z,21.33
2022-12-25T03:53:14.897Z,23.60
2022-12-25T03:56:16.440Z,20.60
2022-12-25T03:59:10.213Z,18.00
2022-12-25T04:04:40.961Z,20.98
2022-12-25T04:07:26.136Z,21.63
2022-12-25T04:10:13.481Z,18.02
2022-12-25T04:12:58.791Z,27.70
2022-12-25T04:15:44.481Z,24.55
2022-12-25T04:18:30.118Z,26.92
2022-12-25T04:21:17.584Z,27.25
2022-12-25T04:24:03.022Z,19.63
2022-12-25T04:26:49.755Z,24.70
2022-12-25T04:29:40.341Z,28.65
2022-12-25T04:32:25.742Z,24.20
2022-12-25T04:35:10.770Z,18.63
2022-12-25T04:37:38.646Z,12.23
2022-12-25T04:40:08.223Z,17.73
2022-12-25T04:42:37.479Z,23.77
2022-12-25T04:45:05.912Z,22.42
2022-12-25T04:47:33.895Z,19.95
2022-12-25T04:50:01.777Z,16.27
2022-12-25T04:52:30.014Z,21.88
2022-12-25T04:54:57.845Z,30.67
2022-12-25T04:57:25.724Z,17.40
2022-12-25T04:59:54.905Z,25.15
2022-12-25T05:02:23.036Z,21.67
2022-12-25T05:04:51.046Z,23.40
2022-12-25T05:07:18.941Z,18.02
2022-12-25T05:09:46.840Z,16.58
2022-12-25T05:12:14.813Z,27.77
2022-12-25T05:14:42.667Z,18.05
2022-12-25T05:17:11.914Z,24.98
2022-12-25T05:19:39.761Z,17.40
2022-12-25T05:22:07.615Z,18.45
2022-12-25T05:24:35.557Z,14.13
2022-12-25T05:27:03.430Z,17.67
2022-12-25T05:29:31.317Z,20.10
2022-12-25T05:31:59.205Z,19.15
2022-12-25T05:34:28.397Z,21.63
2022-12-25T05:36:56.608Z,26.00
2022-12-25T05:39:24.558Z,15.15
2022-12-25T05:41:52.567Z,19.30
2022-12-25T05:44:20.485Z,25.90
2022-12-25T05:46:48.448Z,21.67
2022-12-25T05:49:16.600Z,24.63
2022-12-25T05:51:45.834Z,17.88
2022-12-25T05:54:13.761Z,18.92
2022-12-25T05:56:41.660Z,26.58
2022-12-25T05:59:09.720Z,30.42
2022-12-25T06:01:37.698Z,23.05
2022-12-25T06:04:12.215Z,27.50
2022-12-25T06:06:40.718Z,21.83
2022-12-25T06:09:10.738Z,21.10
2022-12-25T06:11:38.622Z,23.35
2022-12-25T06:14:06.783Z,17.65
2022-12-25T06:16:38.197Z,21.75
2022-12-25T06:19:07.154Z,23.92
2022-12-25T06:21:35.297Z,28.92
2022-12-25T06:24:03.331Z,24.15
2022-12-25T06:26:32.676Z,33.78
2022-12-25T06:29:00.507Z,22.15
2022-12-25T06:31:28.587Z,16.50
2022-12-25T06:33:56.654Z,24.92
2022-12-25T06:36:26.895Z,22.98
2022-12-25T06:38:55.120Z,25.58
2022-12-25T06:41:24.903Z,23.38
2022-12-25T06:43:56.633Z,19.92
2022-12-25T06:46:27.012Z,17.10
2022-12-25T06:48:55.519Z,16.90
2022-12-25T06:51:25.716Z,18.42
2022-12-25T06:53:54.941Z,15.88
2022-12-25T06:56:25.319Z,16.30
2022-12-25T06:58:56.772Z,16.75
2022-12-25T07:01:27.166Z,18.98
2022-12-25T07:03:58.053Z,19.60
2022-12-25T07:06:25.938Z,20.38
2022-12-25T07:08:54.228Z,18.88
2022-12-25T07:11:22.158Z,14.20
2022-12-25T07:13:50.245Z,17.02
2022-12-25T07:16:20.196Z,24.67
2022-12-25T07:18:48.185Z,16.35
2022-12-25T07:21:17.678Z,19.38
2022-12-25T07:23:46.526Z,24.35
2022-12-25T07:26:14.797Z,16.83
2022-12-25T07:28:42.942Z,22.02
2022-12-25T07:31:13.706Z,14.32
2022-12-25T07:33:43.610Z,15.68
2022-12-25T07:36:12.801Z,18.27
2022-12-25T07:38:41.744Z,15.23
2022-12-25T07:41:10.607Z,23.45
2022-12-25T07:43:38.785Z,18.67
2022-12-25T07:46:07.051Z,15.10
2022-12-25T07:48:35.171Z,17.17
2022-12-25T07:51:06.589Z,16.08
2022-12-25T07:53:35.287Z,17.52
2022-12-25T07:56:05.977Z,18.77
2022-12-25T07:58:34.313Z,15.13
2022-12-25T08:01:05.395Z,15.35
2022-12-25T08:03:33.983Z,17.98
2022-12-25T08:06:05.009Z,15.98
2022-12-25T08:08:33.541Z,17.80
2022-12-25T08:11:01.583Z,14.75
2022-12-25T08:13:31.801Z,17.20
2022-12-25T08:16:00.517Z,16.30
2022-12-25T08:18:30.410Z,16.92
2022-12-25T08:21:05.006Z,13.82
2022-12-25T08:23:35.869Z,16.63
2022-12-25T08:26:05.921Z,19.77
2022-12-25T08:28:34.416Z,18.98
2022-12-25T08:31:07.439Z,16.63
2022-12-25T08:33:35.919Z,22.73
2022-12-25T08:36:06.637Z,20.58
2022-12-25T08:38:34.766Z,16.15
2022-12-25T08:41:02.934Z,24.02
2022-12-25T08:43:30.815Z,17.20
2022-12-25T08:45:58.784Z,20.67
2022-12-25T08:48:26.910Z,15.13
2022-12-25T08:50:55.168Z,21.20
2022-12-25T08:53:24.656Z,17.58
2022-12-25T08:55:58.605Z,25.27
2022-12-25T08:58:26.940Z,22.08
2022-12-25T09:00:55.147Z,17.95
2022-12-25T09:03:23.923Z,20.73
2022-12-25T09:05:52.316Z,18.02
2022-12-25T09:08:21.700Z,24.95
2022-12-25T09:10:51.067Z,17.65
2022-12-25T09:13:18.941Z,12.65
2022-12-25T09:15:46.875Z,12.90
2022-12-25T09:18:15.323Z,14.13
2022-12-25T09:20:43.267Z,15.70
2022-12-25T09:23:14.057Z,16.13
2022-12-25T09:25:42.313Z,20.63
2022-12-25T09:28:11.544Z,25.55
2022-12-25T09:30:39.463Z,22.60
2022-12-25T09:33:07.411Z,17.73
2022-12-25T09:35:35.379Z,22.45
2022-12-25T09:38:03.209Z,21.33
2022-12-25T09:40:33.364Z,24.48
2022-12-25T09:43:03.127Z,20.30
2022-12-25T09:45:36.835Z,19.25
2022-12-25T09:48:05.235Z,19.35
2022-12-25T09:50:42.183Z,21.33
2022-12-25T09:53:15.898Z,19.15
2022-12-25T09:56:02.558Z,21.67
2022-12-25T09:58:31.419Z,19.52
2022-12-25T10:01:09.018Z,23.65
2022-12-25T10:03:55.976Z,16.05
2022-12-25T10:06:30.666Z,22.75
2022-12-25T10:09:13.367Z,22.48
2022-12-25T10:12:03.057Z,29.13
2022-12-25T10:14:38.836Z,26.85
2022-12-25T10:17:31.121Z,30.50
2022-12-25T10:20:09.163Z,30.48
2022-12-25T10:22:41.570Z,28.13
2022-12-25T10:25:17.848Z,22.00
2022-12-25T10:27:46.731Z,31.02
2022-12-25T10:30:17.107Z,34.05
2022-12-25T10:32:47.803Z,30.25
2022-12-25T10:35:18.737Z,39.45
2022-12-25T10:37:55.125Z,24.95
2022-12-25T10:40:33.149Z,23.80
2022-12-25T10:43:08.921Z,28.05
2022-12-25T10:45:44.793Z,31.23
2022-12-25T10:48:22.755Z,29.00
2022-12-25T10:50:51.449Z,26.77
2022-12-25T10:53:25.100Z,27.80
2022-12-25T10:56:01.471Z,29.13
2022-12-25T10:58:30.479Z,35.15
2022-12-25T11:01:03.497Z,37.03
2022-12-25T11:03:35.158Z,33.90
2022-12-25T11:06:03.806Z,31.90
2022-12-25T11:08:34.846Z,36.00
2022-12-25T11:11:06.430Z,33.38
2022-12-25T11:13:37.352Z,33.75
2022-12-25T11:16:09.708Z,38.78
2022-12-25T11:18:47.094Z,34.63
2022-12-25T11:21:19.708Z,33.88
2022-12-25T11:23:49.890Z,32.63
2022-12-25T11:26:19.378Z,30.83
2022-12-25T11:28:47.623Z,32.08
2022-12-25T11:31:19.429Z,31.80
2022-12-25T11:33:56.545Z,32.15
2022-12-25T11:36:31.171Z,32.42
2022-12-25T11:39:06.741Z,35.83
2022-12-25T11:41:37.160Z,34.80
2022-12-25T11:44:15.815Z,35.97
2022-12-25T11:46:52.259Z,36.50
2022-12-25T11:49:23.133Z,35.55
2022-12-25T11:51:54.794Z,29.50
2022-12-25T11:54:29.329Z,39.60
2022-12-25T11:57:00.445Z,33.15
2022-12-25T11:59:34.317Z,35.05
2022-12-25T12:02:12.731Z,33.03
2022-12-25T12:04:50.128Z,28.75
2022-12-25T12:07:25.113Z,35.75
2022-12-25T12:10:03.464Z,34.70
2022-12-25T12:12:39.711Z,38.30
2022-12-25T12:15:20.122Z,42.75
2022-12-25T12:17:48.757Z,38.28
2022-12-25T12:20:30.631Z,33.17
2022-12-25T12:22:59.962Z,31.13
2022-12-25T12:25:28.984Z,31.25
2022-12-25T12:28:04.942Z,36.65
2022-12-25T12:30:36.629Z,34.53
2022-12-25T12:33:07.839Z,32.72
2022-12-25T12:35:40.572Z,32.47
2022-12-25T12:38:15.815Z,35.78
2022-12-25T12:40:52.001Z,31.15
2022-12-25T12:43:30.981Z,31.85
2022-12-25T12:46:03.171Z,29.85
2022-12-25T12:48:38.395Z,26.70
2022-12-25T12:51:09.691Z,26.08
2022-12-25T12:53:39.269Z,28.27
2022-12-25T12:56:16.447Z,31.05
2022-12-25T12:58:49.986Z,27.13
2022-12-25T13:01:38.451Z,26.52
2022-12-25T13:04:38.407Z,27.58
2022-12-25T13:07:20.473Z,21.10
2022-12-25T13:10:04.825Z,23.35
2022-12-25T13:12:32.753Z,20.08
2022-12-25T13:15:01.725Z,21.75
2022-12-25T13:17:31.494Z,25.23
2022-12-25T13:20:02.288Z,23.98
2022-12-25T13:22:35.117Z,26.98
2022-12-25T13:25:07.780Z,22.15
2022-12-25T13:27:36.111Z,17.45
2022-12-25T13:30:14.347Z,18.15
2022-12-25T13:32:45.786Z,18.55
2022-12-25T13:35:15.231Z,17.80
2022-12-25T13:37:46.091Z,19.42
2022-12-25T13:40:22.184Z,19.13
2022-12-25T13:42:50.144Z,20.13
2022-12-25T13:45:23.899Z,17.67
2022-12-25T13:47:55.393Z,16.40
2022-12-25T13:50:25.715Z,18.45
2022-12-25T13:52:57.532Z,15.88
2022-12-25T13:55:27.646Z,14.85
2022-12-25T13:57:57.783Z,18.50
2022-12-25T14:00:31.214Z,21.42
2022-12-25T14:03:00.210Z,18.65
2022-12-25T14:05:34.741Z,18.13
2022-12-25T14:08:18.666Z,18.73
2022-12-25T14:10:50.257Z,15.57
2022-12-25T14:13:20.719Z,15.18
2022-12-25T14:15:49.799Z,18.60
2022-12-25T14:18:19.305Z,17.17
2022-12-25T14:21:00.076Z,20.08
2022-12-25T14:23:41.187Z,16.58
2022-12-25T14:26:15.623Z,20.50
2022-12-25T14:28:47.649Z,13.30
2022-12-25T14:31:18.316Z,12.95
2022-12-25T14:33:49.685Z,13.40
2022-12-25T14:36:17.798Z,20.52
2022-12-25T14:38:58.135Z,15.85
2022-12-25T14:41:37.893Z,16.60
2022-12-25T14:44:26.188Z,17.08
2022-12-25T14:47:07.489Z,17.42
2022-12-25T14:49:48.550Z,21.42
2022-12-25T14:52:21.380Z,16.27
2022-12-25T14:54:54.721Z,23.73
2022-12-25T15:00:01.508Z,16.27
2022-12-25T15:02:40.894Z,19.92
2022-12-25T15:05:28.884Z,21.83
2022-12-25T15:08:02.529Z,19.77
2022-12-25T15:13:20.677Z,23.92
2022-12-25T15:15:56.527Z,19.55
2022-12-25T15:18:27.988Z,19.02
2022-12-25T15:20:56.954Z,20.02
2022-12-25T15:23:25.657Z,25.30
2022-12-25T15:25:55.028Z,22.15
2022-12-25T15:28:22.960Z,17.80
2022-12-25T15:30:50.950Z,20.98
2022-12-25T15:33:20.299Z,23.98
2022-12-25T15:35:48.891Z,18.05
2022-12-25T15:38:16.805Z,19.83
2022-12-25T15:40:44.817Z,14.82
2022-12-25T15:43:40.255Z,17.90
2022-12-25T15:46:04.758Z,11.93
2022-12-25T15:48:32.633Z,23.27
2022-12-25T15:51:00.546Z,15.80
2022-12-25T15:53:28.427Z,19.92
2022-12-25T15:55:56.356Z,18.23
2022-12-25T15:58:25.617Z,13.63
2022-12-25T16:00:53.381Z,19.05
2022-12-25T16:03:21.205Z,19.08
2022-12-25T16:05:49.351Z,21.63
2022-12-25T16:08:17.228Z,19.02
2022-12-25T16:10:45.165Z,21.45
2022-12-25T16:13:13.562Z,18.77
2022-12-25T16:15:42.842Z,18.70
2022-12-25T16:18:11.478Z,22.15
2022-12-25T16:20:39.454Z,21.42
2022-12-25T16:23:07.324Z,28.05
2022-12-25T16:25:35.185Z,25.90
2022-12-25T16:28:03.762Z,20.63
2022-12-25T16:30:31.950Z,18.05
2022-12-25T16:33:01.201Z,20.30
2022-12-25T16:35:29.238Z,21.98
2022-12-25T16:37:57.126Z,18.33
2022-12-25T16:40:25.011Z,17.67
2022-12-25T16:42:52.914Z,16.50
2022-12-25T16:45:21.036Z,24.65
2022-12-25T16:47:48.943Z,20.13
2022-12-25T16:50:18.339Z,20.00
2022-12-25T16:52:46.240Z,18.90
2022-12-25T16:55:14.255Z,19.23
2022-12-25T16:57:42.129Z,22.50
2022-12-25T17:00:11.684Z,23.80
2022-12-25T17:02:39.718Z,20.55
2022-12-25T17:05:08.765Z,20.77
2022-12-25T17:07:39.063Z,22.40
2022-12-25T17:10:09.704Z,22.73
2022-12-25T17:12:37.571Z,22.65
2022-12-25T17:15:07.140Z,22.98
2022-12-25T17:17:34.987Z,25.13
2022-12-25T17:20:03.908Z,20.70
2022-12-25T17:22:32.367Z,25.90
2022-12-25T17:25:01.752Z,19.98
2022-12-25T17:27:29.847Z,19.80
2022-12-25T17:29:57.940Z,22.52
2022-12-25T17:32:26.118Z,25.20
2022-12-25T17:34:53.999Z,20.80
2022-12-25T17:37:21.895Z,20.35
2022-12-25T17:39:49.963Z,20.65
2022-12-25T17:42:19.488Z,19.58
2022-12-25T17:44:47.510Z,20.92
2022-12-25T17:47:15.460Z,25.83
2022-12-25T17:49:43.342Z,25.85
2022-12-25T17:52:11.343Z,18.98
2022-12-25T17:54:40.866Z,26.33
2022-12-25T17:57:08.976Z,21.63
2022-12-25T17:59:39.639Z,20.17
2022-12-25T18:02:08.141Z,19.33
2022-12-25T18:04:36.245Z,19.52
2022-12-25T18:07:04.419Z,25.67
2022-12-25T18:09:32.526Z,24.70
2022-12-25T18:12:01.298Z,24.25
2022-12-25T18:14:29.208Z,20.30
2022-12-25T18:17:01.285Z,24.23
2022-12-25T18:19:29.241Z,28.20
2022-12-25T18:21:59.666Z,28.08
2022-12-25T18:24:28.570Z,22.13
2022-12-25T18:26:56.576Z,22.67
2022-12-25T18:29:24.549Z,21.38
2022-12-25T18:31:52.800Z,25.52
2022-12-25T18:34:24.121Z,22.25
2022-12-25T18:36:52.447Z,21.15
2022-12-25T18:39:20.519Z,20.23
2022-12-25T18:42:17.178Z,21.00
2022-12-25T18:44:45.664Z,19.02
2022-12-25T18:47:16.086Z,21.83
2022-12-25T18:49:45.615Z,21.27
2022-12-25T18:52:49.217Z,22.35
2022-12-25T18:55:02.430Z,20.02
2022-12-25T18:57:33.254Z,18.35
2022-12-25T19:00:02.935Z,16.60
2022-12-25T19:02:31.482Z,19.77
2022-12-25T19:05:01.059Z,21.85
2022-12-25T19:07:29.506Z,23.10
2022-12-25T19:09:57.661Z,20.40
2022-12-25T19:12:25.974Z,17.98
2022-12-25T19:14:54.042Z,21.63
2022-12-25T19:17:31.173Z,19.02
2022-12-25T19:20:01.203Z,20.00
2022-12-25T19:22:29.318Z,17.85
2022-12-25T19:24:57.605Z,21.90
2022-12-25T19:27:26.235Z,19.80
2022-12-25T19:29:54.241Z,21.95
2022-12-25T19:32:22.248Z,18.60
2022-12-25T19:34:50.440Z,22.00
2022-12-25T19:37:20.704Z,18.42
2022-12-25T19:39:48.848Z,22.70
2022-12-25T19:42:19.195Z,18.58
2022-12-25T19:44:47.374Z,25.25
2022-12-25T19:47:15.336Z,21.35
2022-12-25T19:49:44.710Z,21.52
2022-12-25T19:52:14.548Z,24.50
2022-12-25T19:54:44.064Z,16.77
2022-12-25T19:57:11.992Z,21.05
2022-12-25T19:59:41.437Z,24.02
2022-12-25T20:02:10.580Z,24.88
2022-12-25T20:04:38.722Z,19.92
2022-12-25T20:07:06.645Z,21.55
2022-12-25T20:09:35.467Z,18.85
2022-12-25T20:12:05.767Z,26.30
2022-12-25T20:14:33.860Z,20.38
2022-12-25T20:17:01.853Z,20.77
2022-12-25T20:19:29.891Z,22.25
2022-12-25T20:21:58.783Z,22.65
2022-12-25T20:24:27.089Z,20.33
2022-12-25T20:26:59.017Z,24.25
2022-12-25T20:29:31.325Z,26.20
2022-12-25T20:31:59.391Z,25.98
2022-12-25T20:34:27.298Z,22.92
2022-12-25T20:36:57.375Z,28.08
2022-12-25T20:39:25.235Z,22.83
2022-12-25T20:41:53.079Z,24.05
2022-12-25T20:44:20.943Z,27.25
2022-12-25T20:46:50.166Z,20.75
2022-12-25T20:49:18.687Z,21.77
2022-12-25T20:51:46.570Z,19.98
2022-12-25T20:54:14.881Z,22.42
2022-12-25T20:56:42.955Z,20.98
2022-12-25T20:59:11.783Z,27.02
2022-12-25T21:01:42.161Z,21.30
2022-12-25T21:04:16.009Z,25.15
2022-12-25T21:06:44.532Z,25.60
2022-12-25T21:09:12.424Z,18.63
2022-12-25T21:11:40.727Z,17.20
2022-12-25T21:14:08.626Z,23.80
2022-12-25T21:16:36.562Z,21.60
2022-12-25T21:19:04.492Z,17.90
2022-12-25T21:21:35.883Z,19.25
2022-12-25T21:24:03.807Z,19.35
2022-12-25T21:26:31.862Z,33.30
2022-12-25T21:29:02.549Z,22.33
2022-12-25T21:31:31.207Z,22.45
2022-12-25T21:33:58.220Z,19.85
2022-12-25T21:36:28.266Z,36.35
2022-12-25T21:38:59.351Z,20.35
2022-12-25T21:41:28.430Z,22.40
2022-12-25T21:43:57.201Z,18.38
2022-12-25T21:46:25.669Z,20.30
2022-12-25T21:48:54.386Z,26.40
2022-12-25T21:51:42.699Z,22.00
2022-12-25T21:54:12.859Z,19.27
2022-12-25T21:56:44.834Z,17.92
2022-12-25T21:59:15.355Z,17.92
2022-12-25T22:01:44.421Z,12.93
2022-12-25T22:04:13.826Z,20.35
2022-12-25T22:06:59.288Z,16.67
2022-12-25T22:09:28.818Z,19.85
2022-12-25T22:12:15.671Z,19.45
2022-12-25T22:14:56.324Z,19.95
2022-12-25T22:17:44.599Z,15.80
2022-12-25T22:20:15.235Z,17.80
2022-12-25T22:22:43.342Z,19.48
2022-12-25T22:25:13.546Z,16.55
2022-12-25T22:27:42.603Z,15.55
2022-12-25T22:30:12.961Z,11.95
2022-12-25T22:32:41.417Z,16.67
2022-12-25T22:35:10.148Z,14.65
2022-12-25T22:37:39.108Z,17.55
2022-12-25T22:40:09.335Z,16.67
2022-12-25T22:42:38.670Z,15.63
2022-12-25T22:45:07.229Z,14.82
2022-12-25T22:47:35.208Z,12.75
2022-12-25T22:50:03.241Z,13.73
2022-12-25T22:52:31.153Z,17.38
2022-12-25T22:54:58.987Z,13.50
2022-12-25T22:57:26.854Z,12.98
2022-12-25T22:59:56.144Z,14.90
2022-12-25T23:02:24.117Z,13.20
2022-12-25T23:04:52.164Z,13.57
2022-12-25T23:07:21.243Z,18.60
2022-12-25T23:09:49.157Z,12.10
2022-12-25T23:12:30.918Z,14.05
2022-12-25T23:15:00.188Z,10.93
2022-12-25T23:17:45.640Z,12.60
2022-12-25T23:20:32.963Z,14.40
2022-12-25T23:23:18.810Z,16.88
2022-12-25T23:26:04.327Z,13.90
2022-12-25T23:28:49.569Z,13.25
2022-12-25T23:31:18.979Z,11.00
2022-12-25T23:33:47.157Z,12.73
2022-12-25T23:36:15.039Z,11.40
2022-12-25T23:38:43.007Z,9.77
2022-12-25T23:41:10.851Z,16.00
2022-12-25T23:43:38.796Z,12.32
2022-12-25T23:46:06.997Z,10.45
2022-12-25T23:48:36.216Z,13.88
2022-12-25T23:51:05.021Z,11.55
2022-12-25T23:53:33.970Z,11.23
2022-12-25T23:56:02.036Z,12.00
2022-12-25T23:58:31.443Z,9.20
